Pennville, Indiana
Current Conditions -  °F | °C
As of 12:53 AM on Wednesday 22 Oct 2014 (Local Time) from KMIE Reporting Station
Overcast Overcast  
Wind Chill: 43°   Ceiling: 3700
Heat Index: 46°   Visibility: 10mi
Dew Point: 38°   Wind: 6mph
Humidity: 73%   Direction: 30°NNE
Pressure: 30.21"   Gusts: NA
Location:  40.49°N, 85.15°W
Report Text: KMIE 220453Z AUTO 03005KT 10SM FEW022 OVC037 08/03 A3021 RMK AO2 SLP229 T00780033 401390078
Loading
Personal Weather Stations






























Interactive Weather Map
Tropical Storm Tracking
New forecast layout! Learn more

10-Day Weather Forecast

Advertisements
Track Severe Weather on mobile